Coloma, Indiana
Current Conditions -  °F | °C
As of 3:35 PM on Tuesday 25 Nov 2014 (Local Time) from K4I7 Reporting Station
Overcast Overcast  
Wind Chill: 24°   Ceiling: 1500
Heat Index: 30°   Visibility: 10mi
Dew Point: 23°   Wind: 6mph
Humidity: 75%   Direction: 290°WNW
Pressure: 30.15"   Gusts: NA
Location:  39.7714°N, 87.1705°W
Report Text: K4I7 252035Z AUTO 29005KT 10SM OVC015 M01/M05 A3015 RMK AO2
Loading
Personal Weather Stations






























Interactive Weather Map New forecast layout! Learn more

10-Day Weather Forecast

Advertisements
Track Severe Weather on mobile